Time;durP1;ratioP1;P1;durP2;ratioP2;P2;SDS_P1;SDS_P2;PMS_P1;PMS_P2;Temp;Humidity;BMP_temperature;BMP_pressure;BME280_temperature;BME280_humidity;BME280_pressure;Samples;Min_cycle;Max_cycle;Signal;HPM_P1;HPM_P2
2023/10/27 00:00:26;;;;;;;2.20;1.23;;;10.60;99.90;;;;;;4406811;32;20113;-60
2023/10/27 00:02:51;;;;;;;0.65;0.62;;;10.70;99.90;;;;;;4407448;32;20053;-61
2023/10/27 00:05:16;;;;;;;1.52;1.42;;;10.60;99.90;;;;;;4407000;32;20128;-61
2023/10/27 00:07:42;;;;;;;1.20;0.95;;;10.60;99.90;;;;;;4404100;32;20851;-60
2023/10/27 00:10:07;;;;;;;1.65;1.42;;;10.60;99.90;;;;;;4406189;32;20487;-60
2023/10/27 00:12:33;;;;;;;11.15;0.50;;;10.60;99.90;;;;;;4408285;32;20223;-60
2023/10/27 00:14:59;;;;;;;0.62;0.62;;;10.60;99.90;;;;;;4409033;32;20439;-61
2023/10/27 00:17:24;;;;;;;1.77;1.00;;;10.60;99.90;;;;;;4401632;32;20097;-61
2023/10/27 00:19:50;;;;;;;4.00;1.60;;;10.60;99.90;;;;;;4406096;32;20074;-60
2023/10/27 00:22:15;;;;;;;0.68;0.68;;;10.60;99.90;;;;;;4410388;32;20069;-59
2023/10/27 00:24:41;;;;;;;2.55;1.48;;;10.60;99.90;;;;;;4408718;32;20550;-60
2023/10/27 00:27:06;;;;;;;3.78;1.60;;;10.70;99.90;;;;;;4401608;32;20061;-60
2023/10/27 00:29:32;;;;;;;1.65;0.95;;;10.60;99.90;;;;;;4407112;32;20525;-59
2023/10/27 00:31:57;;;;;;;2.30;1.85;;;10.60;99.90;;;;;;4410632;32;20140;-61
2023/10/27 00:34:23;;;;;;;1.70;1.25;;;10.60;99.90;;;;;;4408202;32;20111;-59
2023/10/27 00:36:48;;;;;;;1.77;1.17;;;10.50;99.90;;;;;;4399796;32;20541;-61
2023/10/27 00:39:14;;;;;;;1.20;0.80;;;10.50;99.90;;;;;;4400371;32;20143;-60
2023/10/27 00:41:39;;;;;;;5.22;1.15;;;10.50;99.90;;;;;;4408652;32;20057;-61
2023/10/27 00:44:05;;;;;;;2.75;0.70;;;10.50;99.90;;;;;;4406387;32;20069;-59
2023/10/27 00:46:30;;;;;;;2.87;1.42;;;10.50;99.90;;;;;;4399300;32;20092;-61
2023/10/27 00:48:56;;;;;;;2.37;1.10;;;10.50;99.90;;;;;;4405081;32;20098;-60
2023/10/27 00:51:22;;;;;;;1.08;1.00;;;10.50;99.90;;;;;;4408190;32;21216;-60
2023/10/27 00:53:48;;;;;;;2.55;1.48;;;10.50;99.90;;;;;;4392876;32;20074;-61
2023/10/27 00:56:14;;;;;;;3.17;1.37;;;10.50;99.90;;;;;;4402046;32;20073;-60
2023/10/27 00:58:40;;;;;;;2.25;1.25;;;10.50;99.90;;;;;;4403272;32;20540;-60
2023/10/27 01:01:07;;;;;;;3.03;2.10;;;10.50;99.90;;;;;;4404164;32;20416;-60
2023/10/27 01:03:33;;;;;;;3.95;1.60;;;10.60;99.90;;;;;;4402813;32;20144;-58
2023/10/27 01:05:58;;;;;;;3.75;1.17;;;10.60;99.90;;;;;;4402035;32;20078;-59
2023/10/27 01:08:24;;;;;;;4.03;1.30;;;10.50;99.90;;;;;;4397990;32;20077;-61
2023/10/27 01:10:49;;;;;;;7.20;2.05;;;10.50;99.90;;;;;;4403305;32;20083;-62
2023/10/27 01:13:15;;;;;;;16.12;2.05;;;10.60;99.90;;;;;;4405464;32;20078;-60
2023/10/27 01:15:40;;;;;;;2.72;1.73;;;10.50;99.90;;;;;;4406807;32;20932;-61
2023/10/27 01:18:06;;;;;;;20.05;2.97;;;10.50;99.90;;;;;;4400210;32;20088;-61
2023/10/27 01:20:31;;;;;;;2.53;1.48;;;10.50;99.90;;;;;;4409660;32;20501;-61
2023/10/27 01:22:57;;;;;;;2.60;1.65;;;10.50;99.90;;;;;;4409583;32;20093;-61
2023/10/27 01:25:22;;;;;;;4.07;1.85;;;10.40;99.90;;;;;;4409931;32;20077;-62
2023/10/27 01:27:48;;;;;;;6.50;2.62;;;10.40;99.90;;;;;;4406335;32;20486;-61
2023/10/27 01:30:14;;;;;;;5.80;2.37;;;10.40;99.90;;;;;;4408867;32;20554;-61
2023/10/27 01:32:40;;;;;;;1.98;1.17;;;10.40;99.90;;;;;;4404805;32;20093;-61
2023/10/27 01:35:07;;;;;;;2.85;1.27;;;10.40;99.90;;;;;;4405291;32;20092;-61
2023/10/27 01:37:32;;;;;;;2.28;1.52;;;10.40;99.90;;;;;;4400148;32;21426;-60
2023/10/27 01:39:58;;;;;;;1.98;0.98;;;10.50;99.90;;;;;;4405891;32;20101;-61
2023/10/27 01:42:24;;;;;;;3.12;1.40;;;10.50;99.90;;;;;;4410457;32;20451;-59
2023/10/27 01:44:50;;;;;;;2.78;1.25;;;10.50;99.90;;;;;;4408994;32;20065;-60
2023/10/27 01:47:15;;;;;;;1.90;1.67;;;10.50;99.90;;;;;;4404048;32;20611;-61
2023/10/27 01:49:40;;;;;;;1.25;0.95;;;10.50;99.90;;;;;;4405954;32;20456;-61
2023/10/27 01:52:06;;;;;;;1.70;1.48;;;10.40;99.90;;;;;;4411323;32;20143;-61
2023/10/27 01:54:31;;;;;;;3.60;1.58;;;10.40;99.90;;;;;;4408870;32;20064;-62
2023/10/27 01:56:57;;;;;;;1.65;1.05;;;10.40;99.90;;;;;;4402023;32;20082;-61
2023/10/27 01:59:22;;;;;;;7.40;2.28;;;10.40;99.90;;;;;;4405600;32;20070;-61
2023/10/27 02:01:48;;;;;;;2.80;1.37;;;10.40;99.90;;;;;;4409647;32;20174;-60
2023/10/27 02:04:13;;;;;;;2.72;1.58;;;10.50;99.90;;;;;;4408566;32;20062;-60
2023/10/27 02:06:39;;;;;;;1.08;0.95;;;10.50;99.90;;;;;;4406570;32;20091;-60
2023/10/27 02:09:04;;;;;;;2.22;1.48;;;10.40;99.90;;;;;;4406740;32;20065;-61
2023/10/27 02:11:30;;;;;;;2.58;1.40;;;10.40;99.90;;;;;;4410095;32;20511;-61
2023/10/27 02:13:55;;;;;;;3.62;1.60;;;10.40;99.90;;;;;;4405794;32;20120;-61
2023/10/27 02:16:21;;;;;;;4.82;1.70;;;10.30;99.90;;;;;;4406320;32;21161;-62
2023/10/27 02:18:46;;;;;;;1.77;0.98;;;10.30;99.90;;;;;;4401486;32;20214;-60
2023/10/27 02:21:12;;;;;;;7.75;1.58;;;10.30;99.90;;;;;;4406428;32;20510;-60
2023/10/27 02:23:37;;;;;;;2.00;1.02;;;10.30;99.90;;;;;;4408285;32;20229;-61
2023/10/27 02:26:03;;;;;;;6.75;1.60;;;10.30;99.90;;;;;;4405098;32;20153;-60
2023/10/27 02:28:28;;;;;;;8.32;2.87;;;10.30;99.90;;;;;;4407186;32;20066;-60
2023/10/27 02:30:54;;;;;;;3.12;1.62;;;10.30;99.90;;;;;;4405794;32;20087;-61
2023/10/27 02:33:19;;;;;;;9.65;2.40;;;10.30;99.90;;;;;;4408844;32;20573;-60
2023/10/27 02:35:44;;;;;;;1.50;1.08;;;10.30;99.90;;;;;;4406876;32;20082;-61
2023/10/27 02:38:10;;;;;;;1.65;1.50;;;10.30;99.90;;;;;;4399487;32;20090;-61
2023/10/27 02:40:36;;;;;;;3.62;2.10;;;10.30;99.90;;;;;;4408538;32;20086;-61
2023/10/27 02:43:01;;;;;;;1.85;1.48;;;10.30;99.90;;;;;;4410403;32;20077;-60
2023/10/27 02:45:26;;;;;;;5.30;1.87;;;10.30;99.90;;;;;;4410830;32;20185;-61
2023/10/27 02:47:52;;;;;;;12.45;2.40;;;10.30;99.90;;;;;;4406301;32;20069;-61
2023/10/27 02:50:17;;;;;;;2.60;1.25;;;10.30;99.90;;;;;;4405928;32;20069;-61
2023/10/27 02:52:43;;;;;;;8.82;2.35;;;10.30;99.90;;;;;;4407647;32;20061;-61
2023/10/27 02:55:09;;;;;;;3.40;2.45;;;10.30;99.90;;;;;;4408095;32;20569;-61
2023/10/27 02:57:34;;;;;;;2.12;1.25;;;10.40;99.90;;;;;;4400755;32;20085;-61
2023/10/27 03:00:00;;;;;;;4.03;1.90;;;10.40;99.90;;;;;;4405160;32;20098;-62
2023/10/27 03:02:27;;;;;;;2.17;1.30;;;10.40;99.90;;;;;;4408529;32;20061;-61
2023/10/27 03:04:55;;;;;;;4.65;2.17;;;10.40;99.90;;;;;;4408174;32;20546;-61
2023/10/27 03:07:20;;;;;;;2.53;1.67;;;10.50;99.90;;;;;;4404631;32;20529;-62
2023/10/27 03:09:46;;;;;;;15.23;3.25;;;10.40;99.90;;;;;;4405646;32;20078;-61
2023/10/27 03:12:11;;;;;;;5.20;2.47;;;10.30;99.90;;;;;;4409460;32;20078;-61
2023/10/27 03:14:37;;;;;;;4.25;2.00;;;10.30;99.90;;;;;;4410339;32;20093;-60
2023/10/27 03:17:03;;;;;;;3.72;2.17;;;10.30;99.90;;;;;;4402885;32;20085;-61
2023/10/27 03:19:28;;;;;;;2.97;1.40;;;10.40;99.90;;;;;;4405197;32;20077;-60
2023/10/27 03:21:54;;;;;;;1.62;1.25;;;10.30;99.90;;;;;;4408279;32;20053;-60
2023/10/27 03:24:19;;;;;;;6.85;1.37;;;10.30;99.90;;;;;;4406937;32;20837;-61
2023/10/27 03:26:45;;;;;;;8.88;1.30;;;10.30;99.90;;;;;;4403553;32;20098;-61
2023/10/27 03:29:10;;;;;;;1.08;1.00;;;10.30;99.90;;;;;;4406263;32;20153;-61
2023/10/27 03:31:36;;;;;;;19.02;2.08;;;10.30;99.90;;;;;;4408070;32;20516;-60
2023/10/27 03:34:01;;;;;;;9.05;1.40;;;10.40;99.90;;;;;;4407380;32;20534;-60
2023/10/27 03:36:27;;;;;;;2.78;1.85;;;10.40;99.90;;;;;;4402993;32;20097;-59
2023/10/27 03:38:52;;;;;;;0.98;0.93;;;10.40;99.90;;;;;;4401756;32;20082;-59
2023/10/27 03:41:18;;;;;;;15.95;1.70;;;10.40;99.90;;;;;;4405130;32;20221;-60
2023/10/27 03:43:43;;;;;;;6.18;1.65;;;10.40;99.90;;;;;;4409147;32;20086;-60
2023/10/27 03:46:09;;;;;;;13.10;1.10;;;10.40;99.90;;;;;;4407995;32;20062;-60
2023/10/27 03:48:35;;;;;;;6.18;1.65;;;10.30;99.90;;;;;;4405811;32;20133;-59
2023/10/27 03:51:05;;;;;;;3.58;1.20;;;10.30;99.90;;;;;;4407610;32;20565;-60
2023/10/27 03:53:31;;;;;;;2.43;1.47;;;10.30;99.90;;;;;;4392960;32;20522;-61
2023/10/27 03:55:56;;;;;;;4.95;1.45;;;10.30;99.90;;;;;;4407069;32;20595;-60
2023/10/27 03:58:22;;;;;;;2.50;1.08;;;10.30;99.90;;;;;;4403972;32;20161;-60
2023/10/27 04:00:47;;;;;;;4.60;1.90;;;10.30;99.90;;;;;;4407621;32;20498;-60
2023/10/27 04:03:13;;;;;;;2.28;1.23;;;10.30;99.90;;;;;;4407609;32;20434;-60
2023/10/27 04:05:39;;;;;;;2.40;1.60;;;10.30;99.90;;;;;;4404897;32;20083;-60
2023/10/27 04:08:04;;;;;;;4.20;1.67;;;10.30;99.90;;;;;;4403464;32;20086;-61
2023/10/27 04:10:32;;;;;;;1.48;1.12;;;10.30;99.90;;;;;;4407807;32;20529;-61
2023/10/27 04:12:58;;;;;;;1.73;1.45;;;10.30;99.90;;;;;;4405440;32;20085;-59
2023/10/27 04:15:23;;;;;;;2.83;1.73;;;10.30;99.90;;;;;;4409510;32;20081;-60
2023/10/27 04:17:49;;;;;;;1.15;0.77;;;10.20;99.90;;;;;;4400580;32;20090;-60
2023/10/27 04:20:14;;;;;;;4.78;2.85;;;10.30;99.90;;;;;;4405528;32;20156;-59
2023/10/27 04:22:40;;;;;;;8.57;1.12;;;10.30;99.90;;;;;;4405807;32;20081;-60
2023/10/27 04:25:06;;;;;;;1.02;0.93;;;10.30;99.90;;;;;;4406611;32;20050;-61
2023/10/27 04:27:31;;;;;;;6.87;1.55;;;10.30;99.90;;;;;;4400407;32;20069;-60
2023/10/27 04:29:57;;;;;;;5.60;2.17;;;10.30;99.90;;;;;;4408309;32;20078;-60
2023/10/27 04:32:24;;;;;;;7.20;2.30;;;10.40;99.90;;;;;;4409783;32;20062;-60
2023/10/27 04:34:50;;;;;;;14.35;1.83;;;10.40;99.90;;;;;;4405528;32;20051;-60
2023/10/27 04:37:15;;;;;;;3.20;1.25;;;10.40;99.90;;;;;;4402885;32;21603;-61
2023/10/27 04:39:41;;;;;;;4.53;2.50;;;10.40;99.90;;;;;;4404247;32;20467;-61
2023/10/27 04:42:07;;;;;;;4.40;1.45;;;10.30;99.90;;;;;;4407726;32;20089;-62
2023/10/27 04:44:33;;;;;;;5.65;1.62;;;10.40;99.90;;;;;;4405947;32;20139;-61
2023/10/27 04:46:58;;;;;;;2.47;1.35;;;10.30;99.90;;;;;;4405633;32;20098;-61
2023/10/27 04:49:26;;;;;;;1.35;1.25;;;10.30;99.90;;;;;;4406840;32;20137;-61
2023/10/27 04:54:19;;;;;;;1.27;1.17;;;10.30;99.90;;;;;;4407452;32;20066;-60
2023/10/27 04:56:45;;;;;;;0.60;0.60;;;10.30;99.90;;;;;;4401117;32;20497;-61
2023/10/27 04:59:10;;;;;;;1.60;1.30;;;10.30;99.90;;;;;;4404066;32;20315;-61
2023/10/27 05:01:36;;;;;;;1.05;0.85;;;10.30;99.90;;;;;;4405891;32;20473;-61
2023/10/27 05:04:02;;;;;;;3.45;0.98;;;10.30;99.90;;;;;;4409237;32;20058;-61
2023/10/27 05:06:30;;;;;;;1.37;1.02;;;10.40;99.90;;;;;;4404779;32;20186;-61
2023/10/27 05:08:55;;;;;;;2.12;1.27;;;10.40;99.90;;;;;;4403204;32;20556;-61
2023/10/27 05:11:21;;;;;;;28.38;2.35;;;10.30;99.90;;;;;;4407181;32;20133;-61
2023/10/27 05:13:46;;;;;;;3.35;1.65;;;10.40;99.90;;;;;;4408463;32;20148;-61
2023/10/27 05:16:12;;;;;;;0.98;0.82;;;10.40;99.90;;;;;;4404745;32;20127;-61
2023/10/27 05:18:37;;;;;;;1.45;0.90;;;10.40;99.90;;;;;;4400173;32;20066;-61
2023/10/27 05:21:03;;;;;;;4.87;1.35;;;10.40;99.90;;;;;;4406457;32;20430;-61
2023/10/27 05:23:29;;;;;;;0.77;0.70;;;10.40;99.90;;;;;;4406646;32;20058;-59
2023/10/27 05:25:54;;;;;;;2.70;1.42;;;10.40;99.90;;;;;;4404860;32;20566;-60
2023/10/27 05:28:20;;;;;;;1.17;0.80;;;10.30;99.90;;;;;;4404219;32;20082;-60
2023/10/27 05:30:50;;;;;;;1.60;0.77;;;10.30;99.90;;;;;;4384754;32;20061;-59
2023/10/27 05:33:16;;;;;;;2.20;0.73;;;10.30;99.90;;;;;;4403471;32;20070;-59
2023/10/27 05:35:41;;;;;;;1.48;1.23;;;10.40;99.90;;;;;;4401212;32;20077;-61
2023/10/27 05:38:07;;;;;;;3.97;1.67;;;10.40;99.90;;;;;;4398802;32;20070;-61
2023/10/27 05:40:33;;;;;;;7.12;2.12;;;10.40;99.90;;;;;;4405139;32;20150;-61
2023/10/27 05:42:59;;;;;;;4.32;1.87;;;10.40;99.90;;;;;;4407562;32;20058;-60
2023/10/27 05:45:24;;;;;;;3.87;1.33;;;10.40;99.90;;;;;;4408592;32;20065;-61
2023/10/27 05:47:50;;;;;;;1.05;1.00;;;10.30;99.90;;;;;;4406278;32;20125;-60
2023/10/27 05:50:15;;;;;;;4.68;1.67;;;10.40;99.90;;;;;;4407743;32;20117;-60
2023/10/27 05:52:41;;;;;;;5.72;1.67;;;10.30;99.90;;;;;;4406489;32;20082;-61
2023/10/27 05:55:06;;;;;;;0.90;0.90;;;10.30;99.90;;;;;;4405060;32;20081;-61
2023/10/27 05:57:32;;;;;;;4.62;2.33;;;10.30;99.90;;;;;;4397685;32;20137;-60
2023/10/27 05:59:58;;;;;;;21.65;1.20;;;10.30;99.90;;;;;;4403775;32;20127;-60
2023/10/27 06:02:23;;;;;;;10.35;2.12;;;10.40;99.90;;;;;;4408058;32;20502;-60
2023/10/27 06:04:49;;;;;;;29.70;3.33;;;10.40;99.90;;;;;;4406477;32;20585;-60
2023/10/27 06:07:17;;;;;;;4.78;0.82;;;10.40;99.90;;;;;;4405903;32;20121;-60
2023/10/27 06:09:43;;;;;;;0.60;0.60;;;10.40;99.90;;;;;;4405395;32;20124;-60
2023/10/27 06:12:09;;;;;;;0.88;0.88;;;10.40;99.90;;;;;;4409736;32;20395;-60
2023/10/27 06:14:35;;;;;;;0.88;0.85;;;10.40;99.90;;;;;;4408286;32;20065;-60
2023/10/27 06:17:01;;;;;;;1.60;1.40;;;10.40;99.90;;;;;;4402076;32;20095;-59
2023/10/27 06:19:26;;;;;;;1.83;1.17;;;10.40;99.90;;;;;;4406050;32;20093;-59
2023/10/27 06:21:59;;;;;;;0.80;0.80;;;10.40;99.90;;;;;;4409584;32;20058;-60
2023/10/27 06:24:24;;;;;;;2.53;1.25;;;10.40;99.90;;;;;;4408800;32;20069;-61
2023/10/27 06:26:50;;;;;;;2.00;1.12;;;10.40;99.90;;;;;;4410428;32;20198;-61
2023/10/27 06:29:15;;;;;;;0.85;0.80;;;10.40;99.90;;;;;;4407654;32;20077;-60
2023/10/27 06:31:41;;;;;;;2.60;1.12;;;10.30;99.90;;;;;;4392453;32;20469;-61
2023/10/27 06:34:06;;;;;;;2.08;1.50;;;10.40;99.90;;;;;;4407313;32;20137;-61
2023/10/27 06:36:32;;;;;;;2.53;1.75;;;10.40;99.90;;;;;;4402593;32;20094;-61
2023/10/27 06:38:58;;;;;;;0.65;0.65;;;10.40;99.90;;;;;;4404347;32;20074;-61
2023/10/27 06:41:23;;;;;;;0.90;0.88;;;10.40;99.90;;;;;;4408118;32;20529;-61
2023/10/27 06:43:49;;;;;;;1.60;1.40;;;10.40;99.90;;;;;;4404071;32;20152;-61
2023/10/27 06:46:15;;;;;;;1.80;0.98;;;10.40;99.90;;;;;;4405720;32;20078;-61
2023/10/27 06:48:41;;;;;;;0.88;0.85;;;10.40;99.90;;;;;;4405933;32;20488;-61
2023/10/27 06:51:06;;;;;;;3.28;1.00;;;10.40;99.90;;;;;;4409816;32;20244;-60
2023/10/27 06:53:32;;;;;;;5.15;1.75;;;10.40;99.90;;;;;;4405592;32;20065;-62
2023/10/27 06:55:58;;;;;;;1.42;1.33;;;10.50;99.90;;;;;;4409239;32;20430;-62
2023/10/27 06:58:23;;;;;;;1.00;0.98;;;10.40;99.90;;;;;;4403489;32;20086;-61
2023/10/27 07:00:48;;;;;;;1.50;1.10;;;10.50;99.90;;;;;;4409118;32;20165;-62
2023/10/27 07:03:14;;;;;;;0.75;0.75;;;10.50;99.90;;;;;;4409177;32;20773;-61
2023/10/27 07:05:39;;;;;;;2.62;1.27;;;10.50;99.90;;;;;;4406264;32;20073;-61
2023/10/27 07:08:06;;;;;;;1.27;1.17;;;10.50;99.90;;;;;;4406174;32;20085;-59
2023/10/27 07:10:32;;;;;;;2.33;1.37;;;10.50;99.90;;;;;;4405496;32;20094;-61
2023/10/27 07:12:57;;;;;;;2.08;1.10;;;10.50;99.90;;;;;;4407091;32;20430;-62
2023/10/27 07:15:22;;;;;;;5.10;1.48;;;10.50;99.90;;;;;;4406419;32;20109;-62
2023/10/27 07:17:48;;;;;;;0.75;0.75;;;10.50;99.90;;;;;;4401402;32;20110;-63
2023/10/27 07:20:13;;;;;;;1.75;1.48;;;10.50;99.90;;;;;;4408339;32;20098;-61
2023/10/27 07:22:39;;;;;;;3.97;2.15;;;10.60;99.90;;;;;;4408769;32;20097;-61
2023/10/27 07:25:05;;;;;;;1.85;1.23;;;10.60;99.90;;;;;;4409331;32;20078;-60
2023/10/27 07:27:30;;;;;;;0.90;0.82;;;10.60;99.90;;;;;;4407228;32;20066;-61
2023/10/27 07:29:56;;;;;;;0.90;0.88;;;10.50;99.90;;;;;;4409612;32;20061;-63
2023/10/27 07:32:21;;;;;;;1.42;1.30;;;10.50;99.90;;;;;;4408135;32;20101;-61
2023/10/27 07:34:48;;;;;;;2.03;1.33;;;10.60;99.90;;;;;;4406606;32;20073;-61
2023/10/27 07:37:13;;;;;;;1.45;1.00;;;10.50;99.90;;;;;;4401496;32;20081;-61
2023/10/27 07:39:39;;;;;;;2.00;1.35;;;10.50;99.90;;;;;;4405627;32;20147;-62
2023/10/27 07:42:07;;;;;;;0.95;0.93;;;10.50;99.90;;;;;;4403581;32;20853;-61
2023/10/27 07:44:32;;;;;;;4.30;1.35;;;10.60;99.90;;;;;;4406541;32;20070;-61
2023/10/27 07:46:59;;;;;;;2.05;1.48;;;10.60;99.90;;;;;;4393004;32;20090;-61
2023/10/27 07:49:24;;;;;;;14.20;1.95;;;10.60;99.90;;;;;;4405813;32;20087;-60
2023/10/27 07:51:50;;;;;;;4.35;1.80;;;10.60;99.90;;;;;;4405977;32;20073;-61
2023/10/27 07:54:15;;;;;;;2.35;1.58;;;10.60;99.90;;;;;;4395215;32;20513;-61
2023/10/27 07:56:41;;;;;;;4.50;2.37;;;10.70;99.90;;;;;;4402186;32;20078;-60
2023/10/27 07:59:07;;;;;;;1.33;1.12;;;10.60;99.90;;;;;;4403792;32;20106;-61
2023/10/27 08:01:32;;;;;;;1.52;1.33;;;10.60;99.90;;;;;;4406059;32;20089;-61
2023/10/27 08:03:59;;;;;;;1.70;1.60;;;10.60;99.90;;;;;;4406660;32;20083;-61
2023/10/27 08:06:24;;;;;;;2.08;1.45;;;10.50;99.90;;;;;;4406147;32;20576;-62
2023/10/27 08:08:50;;;;;;;5.37;1.73;;;10.60;99.90;;;;;;4404596;32;20553;-60
2023/10/27 08:11:17;;;;;;;1.80;1.05;;;10.60;99.90;;;;;;4407286;32;20124;-61
2023/10/27 08:13:43;;;;;;;2.10;1.52;;;10.60;99.90;;;;;;4395887;32;20066;-61
2023/10/27 08:16:09;;;;;;;1.30;1.17;;;10.70;99.90;;;;;;4403841;32;20073;-61
2023/10/27 08:18:34;;;;;;;0.98;0.70;;;10.70;99.90;;;;;;4403238;32;20550;-62
2023/10/27 08:20:59;;;;;;;1.37;1.02;;;10.70;99.90;;;;;;4409106;32;20077;-61
2023/10/27 08:23:25;;;;;;;11.85;2.53;;;10.80;99.90;;;;;;4407523;32;20121;-62
2023/10/27 08:25:51;;;;;;;1.40;1.15;;;10.70;99.90;;;;;;4407859;32;20065;-60
2023/10/27 08:28:18;;;;;;;8.52;1.48;;;10.70;99.90;;;;;;4378638;32;20112;-60
2023/10/27 08:30:44;;;;;;;1.83;1.58;;;10.70;99.90;;;;;;4405363;32;20425;-61
2023/10/27 08:33:10;;;;;;;6.12;1.58;;;10.70;99.90;;;;;;4408227;32;20061;-61
2023/10/27 08:35:35;;;;;;;3.05;1.50;;;10.70;99.90;;;;;;4401260;32;20604;-61
2023/10/27 08:38:01;;;;;;;1.30;1.10;;;10.70;99.90;;;;;;4398843;32;20097;-61
2023/10/27 08:40:27;;;;;;;6.20;1.33;;;10.70;99.90;;;;;;4406026;32;20093;-61
2023/10/27 08:42:54;;;;;;;3.28;1.83;;;10.70;99.90;;;;;;4410792;32;20447;-61
2023/10/27 08:45:22;;;;;;;4.53;1.62;;;10.70;99.90;;;;;;4407878;32;20086;-61
2023/10/27 08:47:47;;;;;;;1.25;0.98;;;10.60;99.90;;;;;;4403522;32;20069;-61
2023/10/27 08:50:13;;;;;;;3.40;1.55;;;10.60;99.90;;;;;;4406818;32;20093;-61
2023/10/27 08:52:39;;;;;;;1.40;1.17;;;10.60;99.90;;;;;;4407738;32;20620;-61
2023/10/27 08:55:08;;;;;;;2.85;1.08;;;10.60;99.90;;;;;;4405484;32;20136;-60
2023/10/27 08:57:34;;;;;;;9.18;1.62;;;10.60;99.90;;;;;;4401192;32;20589;-60
2023/10/27 08:59:59;;;;;;;1.83;1.70;;;10.60;99.90;;;;;;4404366;32;20095;-61
2023/10/27 09:02:33;;;;;;;0.88;0.88;;;10.60;99.90;;;;;;4406348;32;20102;-62
2023/10/27 09:05:04;;;;;;;1.70;1.58;;;10.60;99.90;;;;;;4403700;32;20470;-61
2023/10/27 09:07:30;;;;;;;;;;;10.70;99.90;;;;;;4401806;32;20098;-60
2023/10/27 09:09:58;;;;;;;1.00;0.75;;;10.60;99.90;;;;;;4404389;32;20122;-61
2023/10/27 09:12:26;;;;;;;1.20;1.10;;;10.60;99.90;;;;;;4407404;32;20158;-61
2023/10/27 09:15:01;;;;;;;1.35;1.17;;;10.60;99.90;;;;;;4407299;32;20101;-61
2023/10/27 09:17:29;;;;;;;1.75;1.10;;;10.60;99.90;;;;;;4398991;32;20069;-61
2023/10/27 09:20:06;;;;;;;1.77;1.00;;;10.60;99.90;;;;;;4407533;32;20442;-61
2023/10/27 09:22:32;;;;;;;3.28;1.55;;;10.70;99.90;;;;;;4407649;32;20565;-62
2023/10/27 09:25:14;;;;;;;0.85;0.80;;;10.70;99.90;;;;;;4407688;32;20074;-62
2023/10/27 09:27:44;;;;;;;0.93;0.93;;;10.70;99.90;;;;;;4404978;32;20510;-61
2023/10/27 09:30:12;;;;;;;4.82;2.47;;;10.70;99.90;;;;;;4404032;32;20057;-62
2023/10/27 09:32:40;;;;;;;5.35;1.58;;;10.70;99.90;;;;;;4406260;32;20101;-62
2023/10/27 09:35:09;;;;;;;1.27;1.17;;;10.70;99.90;;;;;;4401543;32;20069;-61
2023/10/27 09:37:37;;;;;;;1.58;0.98;;;10.70;99.90;;;;;;4395298;32;20082;-62
2023/10/27 09:40:06;;;;;;;14.70;1.95;;;10.70;99.90;;;;;;4393149;32;20101;-62
2023/10/27 09:42:35;;;;;;;1.27;0.98;;;10.70;99.90;;;;;;4394192;32;20073;-60
2023/10/27 09:45:08;;;;;;;1.92;1.10;;;10.70;99.90;;;;;;4407797;32;20125;-62
2023/10/27 09:47:39;;;;;;;1.05;0.98;;;10.70;99.90;;;;;;4409460;32;20407;-61
2023/10/27 09:50:06;;;;;;;3.15;1.52;;;10.70;99.90;;;;;;4398091;32;20118;-61
2023/10/27 09:52:33;;;;;;;1.65;1.10;;;10.80;99.90;;;;;;4406652;32;20089;-62
2023/10/27 09:55:02;;;;;;;2.65;1.15;;;10.70;99.90;;;;;;4406399;32;20089;-62
2023/10/27 09:57:28;;;;;;;1.40;1.10;;;10.80;99.90;;;;;;4390538;32;20455;-62
2023/10/27 09:59:56;;;;;;;0.80;0.80;;;10.80;99.90;;;;;;4395688;32;20152;-62
2023/10/27 10:02:23;;;;;;;1.25;1.15;;;10.70;99.90;;;;;;4407249;32;20066;-61
2023/10/27 10:04:54;;;;;;;5.30;1.45;;;10.80;99.90;;;;;;4407067;32;20082;-62
2023/10/27 10:07:30;;;;;;;3.35;0.98;;;10.80;99.90;;;;;;4406561;32;20386;-61
2023/10/27 10:09:56;;;;;;;0.62;0.62;;;10.90;99.90;;;;;;4408096;32;20062;-61
2023/10/27 10:12:22;;;;;;;2.05;0.73;;;10.90;99.90;;;;;;4411580;32;20094;-62
2023/10/27 10:14:48;;;;;;;4.57;0.95;;;10.90;99.90;;;;;;4407895;32;20070;-62
2023/10/27 10:17:36;;;;;;;3.00;1.33;;;10.90;99.90;;;;;;4389945;32;20097;-61
2023/10/27 10:20:01;;;;;;;4.30;0.98;;;10.90;99.90;;;;;;4393764;32;20066;-61
2023/10/27 10:22:48;;;;;;;0.98;0.75;;;10.90;99.90;;;;;;4408394;32;20568;-62
2023/10/27 10:25:21;;;;;;;1.33;1.20;;;10.90;99.90;;;;;;4405833;32;20066;-61
2023/10/27 10:28:09;;;;;;;1.67;1.42;;;10.90;99.90;;;;;;4404499;32;20085;-61
2023/10/27 10:30:44;;;;;;;1.83;1.02;;;11.00;99.90;;;;;;4407930;32;20116;-60
2023/10/27 10:33:19;;;;;;;0.90;0.88;;;10.90;99.90;;;;;;4408272;32;20504;-61
2023/10/27 10:35:46;;;;;;;3.53;1.40;;;10.90;99.90;;;;;;4405142;32;20077;-62
2023/10/27 10:38:37;;;;;;;1.27;0.50;;;10.90;99.90;;;;;;4388264;32;20081;-61
2023/10/27 10:41:02;;;;;;;0.90;0.90;;;11.00;99.90;;;;;;4394223;32;20078;-62
2023/10/27 10:43:33;;;;;;;1.48;1.15;;;10.90;99.90;;;;;;4408147;32;20232;-61
2023/10/27 10:45:59;;;;;;;;;;;10.90;99.90;;;;;;4408218;32;20069;-61
2023/10/27 10:48:27;;;;;;;0.70;0.70;;;11.00;99.90;;;;;;4408409;32;20000;-61
2023/10/27 10:50:55;;;;;;;5.22;0.90;;;11.00;99.90;;;;;;4408271;32;20516;-61
2023/10/27 10:53:24;;;;;;;1.55;0.85;;;11.00;99.90;;;;;;4407984;32;20077;-61
2023/10/27 10:55:56;;;;;;;5.28;0.82;;;11.00;99.90;;;;;;4394353;32;20097;-61
2023/10/27 10:58:23;;;;;;;0.90;0.90;;;11.00;99.90;;;;;;4399738;32;20170;-59
2023/10/27 11:00:49;;;;;;;1.10;0.80;;;11.00;99.90;;;;;;4408882;32;20106;-60
2023/10/27 11:03:15;;;;;;;0.77;0.70;;;11.00;99.90;;;;;;4408565;32;20069;-61
2023/10/27 11:05:41;;;;;;;1.15;0.75;;;11.00;99.90;;;;;;4408219;32;20485;-61
2023/10/27 11:08:07;;;;;;;0.57;0.57;;;11.00;99.90;;;;;;4407059;32;20089;-61
2023/10/27 11:10:33;;;;;;;0.57;0.57;;;11.00;99.90;;;;;;4405440;32;20070;-60
2023/10/27 11:13:04;;;;;;;0.57;0.57;;;11.00;99.90;;;;;;4395267;32;20449;-61
2023/10/27 11:15:49;;;;;;;;;;;11.00;99.90;;;;;;4406707;32;20078;-60
2023/10/27 11:18:15;;;;;;;4.90;0.82;;;11.00;99.90;;;;;;4401271;32;20295;-61
2023/10/27 11:20:45;;;;;;;4.57;1.12;;;11.00;99.90;;;;;;4409473;32;20132;-60
2023/10/27 11:23:12;;;;;;;1.73;1.25;;;11.00;99.90;;;;;;4399603;32;20153;-60
2023/10/27 11:25:40;;;;;;;0.60;0.60;;;11.00;99.90;;;;;;4410423;32;20537;-60
2023/10/27 11:28:26;;;;;;;1.45;0.95;;;10.90;99.90;;;;;;4406763;32;20098;-60
2023/10/27 11:31:12;;;;;;;0.50;0.50;;;11.00;99.90;;;;;;4404532;32;20074;-60
2023/10/27 11:33:59;;;;;;;0.57;0.57;;;11.00;99.90;;;;;;4391453;32;20065;-61
2023/10/27 11:36:26;;;;;;;0.50;0.50;;;11.00;99.90;;;;;;4397410;32;20552;-61
2023/10/27 11:38:52;;;;;;;3.08;1.02;;;11.00;99.90;;;;;;4407593;32;20082;-61
2023/10/27 11:41:19;;;;;;;0.93;0.88;;;11.00;99.90;;;;;;4406642;32;20070;-61
2023/10/27 11:43:45;;;;;;;2.15;0.90;;;11.00;99.90;;;;;;4408398;32;20066;-61
2023/10/27 11:46:15;;;;;;;0.90;0.85;;;11.10;99.90;;;;;;4407353;32;20065;-61
2023/10/27 11:48:41;;;;;;;;;;;11.10;99.90;;;;;;4403763;32;109297;-60
2023/10/27 11:51:08;;;;;;;1.67;1.10;;;11.10;99.90;;;;;;4406698;32;20036;-61
2023/10/27 11:53:34;;;;;;;0.55;0.55;;;11.10;99.90;;;;;;4404010;32;20106;-61
2023/10/27 11:56:00;;;;;;;0.90;0.80;;;11.00;99.90;;;;;;4404087;32;20073;-60
2023/10/27 11:58:26;;;;;;;1.20;0.90;;;10.90;99.90;;;;;;4386633;32;20521;-61
2023/10/27 12:00:51;;;;;;;1.23;1.12;;;11.00;99.90;;;;;;4406555;32;20148;-62
2023/10/27 12:03:17;;;;;;;0.62;0.62;;;11.00;99.90;;;;;;4402794;32;20101;-62
2023/10/27 12:05:43;;;;;;;1.87;0.60;;;11.10;99.90;;;;;;4407517;32;20150;-61
2023/10/27 12:08:08;;;;;;;0.88;0.88;;;11.00;99.90;;;;;;4401296;32;20850;-61
2023/10/27 12:10:34;;;;;;;0.68;0.65;;;11.00;99.90;;;;;;4404849;32;20078;-60
2023/10/27 12:13:03;;;;;;;4.07;1.35;;;11.00;99.90;;;;;;4405622;32;20141;-60
2023/10/27 12:15:29;;;;;;;0.60;0.60;;;11.00;99.90;;;;;;4405176;32;20351;-61
2023/10/27 12:17:54;;;;;;;0.62;0.62;;;11.00;99.90;;;;;;4399325;32;20545;-61
2023/10/27 12:20:20;;;;;;;2.15;0.93;;;11.00;99.90;;;;;;4404831;32;20081;-61
2023/10/27 12:22:46;;;;;;;0.60;0.60;;;11.00;99.90;;;;;;4405511;32;20141;-60
2023/10/27 12:25:12;;;;;;;0.40;0.40;;;11.00;99.90;;;;;;4406953;32;20074;-61
2023/10/27 12:27:38;;;;;;;0.90;0.90;;;11.00;99.90;;;;;;4404229;32;20065;-61
2023/10/27 12:30:04;;;;;;;2.87;1.67;;;11.00;99.90;;;;;;4407176;32;20193;-61
2023/10/27 12:32:32;;;;;;;0.98;0.65;;;11.00;99.90;;;;;;4406871;32;20089;-61
2023/10/27 12:34:58;;;;;;;3.00;0.73;;;11.10;99.90;;;;;;4405492;32;20088;-61
2023/10/27 12:37:24;;;;;;;0.80;0.80;;;11.00;99.90;;;;;;4396598;32;20553;-61
2023/10/27 12:39:50;;;;;;;0.50;0.50;;;11.00;99.90;;;;;;4403403;32;20077;-62
2023/10/27 12:42:16;;;;;;;1.52;1.15;;;11.00;99.90;;;;;;4404355;32;20078;-61
2023/10/27 12:44:42;;;;;;;7.47;0.90;;;11.00;99.90;;;;;;4404075;32;20105;-61
2023/10/27 12:47:07;;;;;;;0.93;0.73;;;11.00;99.90;;;;;;4399371;32;20089;-61